Time;durP1;ratioP1;P1;durP2;ratioP2;P2;SDS_P1;SDS_P2;PMS_P1;PMS_P2;Temp;Humidity;BMP_temperature;BMP_pressure;BME280_temperature;BME280_humidity;BME280_pressure;Samples;Min_cycle;Max_cycle;Signal;HPM_P1;HPM_P2
2021/08/02 00:00:21;;;;;;;9.30;3.97;;;;;;;17.11;70.19;99454.06;5073449;27;96965;-89
2021/08/02 00:02:49;;;;;;;10.40;3.95;;;;;;;17.09;70.28;99451.53;5056874;27;101258;-90
2021/08/02 00:05:21;;;;;;;10.27;4.53;;;;;;;17.09;70.09;99450.69;5060881;27;101031;-88
2021/08/02 00:08:00;;;;;;;13.32;4.13;;;;;;;17.11;70.24;99462.03;5039476;27;97109;-89
2021/08/02 00:10:33;;;;;;;12.02;4.30;;;;;;;17.07;69.86;99452.59;5051800;27;96786;-90
2021/08/02 00:13:09;;;;;;;9.52;3.65;;;;;;;17.07;69.21;99456.09;5058477;27;100478;-91
2021/08/02 00:15:36;;;;;;;6.90;4.10;;;;;;;16.96;69.66;99456.91;5067767;27;98348;-89
2021/08/02 00:18:02;;;;;;;7.90;4.00;;;;;;;16.90;69.59;99445.88;5038781;27;96712;-91
2021/08/02 00:20:32;;;;;;;10.02;4.32;;;;;;;16.91;69.74;99456.38;5038616;27;96945;-89
2021/08/02 00:23:00;;;;;;;9.82;4.20;;;;;;;17.01;69.43;99453.88;5041681;27;101174;-89
2021/08/02 00:25:26;;;;;;;13.70;4.63;;;;;;;17.03;69.30;99449.34;5038507;27;101843;-90
2021/08/02 00:27:52;;;;;;;13.55;4.10;;;;;;;17.02;69.76;99446.81;5055711;27;97118;-89
2021/08/02 00:30:18;;;;;;;9.65;3.75;;;;;;;16.97;69.75;99447.97;5021600;27;97135;-89
2021/08/02 00:32:44;;;;;;;9.95;4.18;;;;;;;16.96;69.90;99445.47;5021296;27;100273;-89
2021/08/02 00:35:09;;;;;;;10.93;4.03;;;;;;;17.02;69.81;99449.47;5021939;27;100923;-89
2021/08/02 00:37:44;;;;;;;7.00;4.13;;;;;;;16.94;69.60;99450.84;5039353;27;96969;-88
2021/08/02 00:40:47;;;;;;;6.68;3.38;;;;;;;16.94;69.87;99453.50;5055837;27;98525;-89
2021/08/02 00:43:24;;;;;;;11.13;4.47;;;;;;;16.90;70.05;99438.81;5038139;27;101211;-89
2021/08/02 00:45:51;;;;;;;8.23;3.67;;;;;;;16.93;69.91;99451.84;5038781;27;101521;-89
2021/08/02 00:48:18;;;;;;;8.45;3.75;;;;;;;16.96;69.89;99459.56;5038884;27;96712;-89
2021/08/02 00:50:47;;;;;;;11.50;4.35;;;;;;;16.86;69.91;99453.22;5022390;27;96749;-89
2021/08/02 00:53:22;;;;;;;14.05;4.30;;;;;;;16.87;69.58;99460.25;5021624;27;101091;-90
2021/08/02 00:55:56;;;;;;;7.32;3.80;;;;;;;16.85;69.85;99454.19;5039207;27;101338;-90
2021/08/02 00:58:24;;;;;;;9.77;4.28;;;;;;;16.91;69.51;99453.75;5022024;27;96670;-89
2021/08/02 01:00:51;;;;;;;7.35;4.10;;;;;;;16.91;69.51;99450.25;5022216;27;97019;-89
2021/08/02 01:03:17;;;;;;;11.30;3.78;;;;;;;16.81;69.70;99449.22;5021071;27;101267;-89
2021/08/02 01:05:48;;;;;;;13.48;4.35;;;;;;;16.88;69.64;99453.97;5022546;27;101308;-89
2021/08/02 01:08:22;;;;;;;10.68;3.63;;;;;;;16.84;69.65;99447.22;5024980;27;96926;-89
2021/08/02 01:10:57;;;;;;;9.95;3.72;;;;;;;16.87;69.53;99452.28;5025856;27;96710;-89
2021/08/02 01:13:25;;;;;;;9.30;3.50;;;;;;;16.91;69.58;99451.09;5024989;27;100357;-88
2021/08/02 01:15:54;;;;;;;8.73;3.35;;;;;;;16.83;69.65;99448.16;5041919;27;99980;-89
2021/08/02 01:18:25;;;;;;;12.00;4.47;;;;;;;16.81;69.64;99452.72;5026229;27;96605;-89
2021/08/02 01:20:53;;;;;;;9.45;3.42;;;;;;;16.79;69.42;99459.94;5025440;27;96907;-89
2021/08/02 01:23:21;;;;;;;8.23;4.03;;;;;;;16.79;69.41;99462.59;5024542;27;100413;-89
2021/08/02 01:25:54;;;;;;;8.38;3.60;;;;;;;16.83;69.86;99474.66;5026038;27;100384;-89
2021/08/02 01:28:21;;;;;;;10.32;3.58;;;;;;;16.78;70.18;99468.84;5041764;27;97070;-89
2021/08/02 01:30:55;;;;;;;10.93;4.78;;;;;;;16.91;69.57;99467.00;5059033;27;96816;-89
2021/08/02 01:33:30;;;;;;;10.68;4.13;;;;;;;16.81;69.58;99468.63;5026248;27;101524;-89
2021/08/02 01:36:05;;;;;;;9.70;3.95;;;;;;;16.79;69.83;99467.91;5027428;27;98465;-89
2021/08/02 01:38:33;;;;;;;6.95;3.67;;;;;;;16.80;69.74;99474.88;5042147;27;96716;-89
2021/08/02 01:41:03;;;;;;;8.52;3.40;;;;;;;16.88;69.45;99476.97;5025562;27;96909;-89
2021/08/02 01:43:30;;;;;;;9.88;4.32;;;;;;;16.82;69.76;99474.78;5024702;27;100597;-89
2021/08/02 01:46:02;;;;;;;10.13;5.30;;;;;;;16.87;69.29;99477.91;5025280;27;101133;-90
2021/08/02 01:48:34;;;;;;;12.43;3.90;;;;;;;16.80;69.63;99482.00;5058462;27;97020;-88
2021/08/02 01:51:11;;;;;;;7.68;3.80;;;;;;;16.78;69.50;99470.66;5042024;27;96581;-89
2021/08/02 01:53:46;;;;;;;9.98;4.00;;;;;;;16.80;69.52;99477.53;5024477;27;100959;-89
2021/08/02 01:56:17;;;;;;;11.70;3.97;;;;;;;16.77;69.67;99471.63;5024426;27;101256;-89
2021/08/02 01:58:52;;;;;;;12.23;3.45;;;;;;;16.81;69.79;99470.41;5026777;27;96637;-89
2021/08/02 02:01:42;;;;;;;10.75;3.80;;;;;;;16.79;69.57;99470.56;5035985;27;96728;-88
2021/08/02 02:04:10;;;;;;;7.88;3.45;;;;;;;16.81;69.93;99473.91;5027487;27;101045;-92
2021/08/02 02:06:45;;;;;;;10.65;3.55;;;;;;;16.77;69.52;99472.47;5025388;27;101031;-88
2021/08/02 02:09:14;;;;;;;12.00;3.58;;;;;;;16.73;70.02;99477.13;5024919;27;96580;-89
2021/08/02 02:11:49;;;;;;;9.45;4.20;;;;;;;16.77;69.44;99474.28;5024918;27;96589;-89
2021/08/02 02:14:26;;;;;;;8.65;3.70;;;;;;;16.74;69.38;99472.66;5026210;27;99733;-89
2021/08/02 02:16:54;;;;;;;14.23;4.28;;;;;;;16.77;69.55;99483.06;5024115;27;101199;-89
2021/08/02 02:19:23;;;;;;;13.98;4.00;;;;;;;16.81;69.30;99481.03;5022332;27;97154;-89
2021/08/02 02:21:51;;;;;;;6.22;3.60;;;;;;;16.79;69.74;99467.91;4988520;28;96784;-89
2021/08/02 02:24:19;;;;;;;10.30;3.90;;;;;;;16.77;69.90;99472.47;4987014;28;101277;-89
2021/08/02 02:26:45;;;;;;;5.32;2.95;;;;;;;16.82;69.32;99472.13;4987343;28;101151;-89
2021/08/02 02:29:13;;;;;;;7.15;3.70;;;;;;;16.83;69.81;99473.81;4987316;28;96555;-88
2021/08/02 02:31:42;;;;;;;8.98;3.65;;;;;;;16.81;69.92;99481.88;4987680;28;96989;-88
2021/08/02 02:34:09;;;;;;;10.48;3.63;;;;;;;16.86;69.72;99489.50;4998278;27;102018;-91
2021/08/02 02:36:37;;;;;;;6.22;3.28;;;;;;;16.87;69.41;99486.75;5007079;27;101158;-89
2021/08/02 02:39:05;;;;;;;9.25;3.55;;;;;;;16.87;69.84;99486.75;5008132;27;97078;-89
2021/08/02 02:41:32;;;;;;;6.53;3.38;;;;;;;16.87;69.65;99492.03;5006972;27;97279;-88
2021/08/02 02:44:00;;;;;;;8.52;3.50;;;;;;;16.87;69.82;99497.34;5007252;27;101246;-89
2021/08/02 02:46:26;;;;;;;9.13;3.53;;;;;;;16.91;69.43;99500.63;5023238;27;100992;-89
2021/08/02 02:48:54;;;;;;;7.93;3.63;;;;;;;16.90;69.80;99504.19;5007868;27;96487;-89
2021/08/02 02:51:21;;;;;;;12.63;3.80;;;;;;;16.88;69.74;99506.97;5007318;27;96932;-89
2021/08/02 02:53:48;;;;;;;7.60;3.83;;;;;;;16.83;69.82;99500.31;5023678;27;101236;-89
2021/08/02 02:56:15;;;;;;;16.77;3.78;;;;;;;16.87;70.15;99496.47;5023107;27;100268;-92
2021/08/02 02:58:41;;;;;;;7.53;3.33;;;;;;;16.92;70.09;99505.78;5023941;27;96919;-89
2021/08/02 03:01:08;;;;;;;9.27;3.50;;;;;;;16.91;69.59;99501.44;5007826;27;96994;-89
2021/08/02 03:03:34;;;;;;;4.25;3.33;;;;;;;16.89;70.04;99507.81;5006341;27;99732;-90
2021/08/02 03:06:01;;;;;;;6.78;3.58;;;;;;;16.87;69.91;99515.03;5007057;27;101468;-89
2021/08/02 03:08:27;;;;;;;9.70;4.10;;;;;;;16.86;69.88;99519.50;5006652;27;97094;-89
2021/08/02 03:10:54;;;;;;;10.50;4.25;;;;;;;16.88;69.79;99522.03;5023756;27;96994;-89
2021/08/02 03:13:21;;;;;;;10.32;3.65;;;;;;;16.80;69.92;99517.28;5006499;27;100296;-89
2021/08/02 03:15:47;;;;;;;8.07;3.80;;;;;;;16.78;69.87;99518.34;5006481;27;101475;-89
2021/08/02 03:18:13;;;;;;;14.48;3.58;;;;;;;16.79;70.29;99523.56;5006787;27;96624;-90
2021/08/02 03:20:40;;;;;;;16.70;4.63;;;;;;;16.74;70.34;99526.50;5044128;27;96807;-89
2021/08/02 03:23:28;;;;;;;7.50;3.90;;;;;;;16.73;70.23;99526.63;5039763;27;100287;-89
2021/08/02 03:25:57;;;;;;;11.07;4.15;;;;;;;16.74;69.97;99533.59;5023520;27;101232;-90
2021/08/02 03:28:23;;;;;;;13.30;4.40;;;;;;;16.81;70.08;99539.31;5023219;27;96994;-89
2021/08/02 03:30:49;;;;;;;12.15;3.97;;;;;;;16.75;69.86;99545.88;5039649;27;96971;-89
2021/08/02 03:33:27;;;;;;;8.75;4.13;;;;;;;16.69;70.21;99555.13;5022539;27;100484;-92
2021/08/02 03:35:56;;;;;;;8.10;3.97;;;;;;;16.69;69.87;99552.47;5040355;27;98025;-89
2021/08/02 03:38:23;;;;;;;11.38;3.88;;;;;;;16.70;70.23;99562.13;5022820;27;96571;-89
2021/08/02 03:40:49;;;;;;;16.75;4.00;;;;;;;16.69;70.28;99565.72;5040103;27;96801;-89
2021/08/02 03:43:16;;;;;;;7.03;3.72;;;;;;;16.62;70.25;99560.97;5022736;27;101435;-90
2021/08/02 03:45:42;;;;;;;6.43;3.95;;;;;;;16.63;70.55;99575.91;5022729;27;102844;-89
2021/08/02 03:48:09;;;;;;;10.60;4.63;;;;;;;16.62;70.29;99568.94;5023138;27;97038;-89
2021/08/02 03:50:36;;;;;;;8.68;4.50;;;;;;;16.64;70.20;99573.16;5039766;27;96912;-89
2021/08/02 03:53:02;;;;;;;7.90;3.83;;;;;;;16.66;70.16;99578.34;5022728;27;101616;-89
2021/08/02 03:55:30;;;;;;;9.95;3.92;;;;;;;16.68;70.28;99568.50;5022056;27;100834;-89
2021/08/02 03:57:56;;;;;;;15.07;5.20;;;;;;;16.74;70.28;99570.69;5022804;27;96567;-88
2021/08/02 04:00:22;;;;;;;11.65;4.45;;;;;;;16.74;70.21;99581.31;5039271;27;96800;-89
2021/08/02 04:02:51;;;;;;;8.65;3.78;;;;;;;16.68;70.41;99579.94;5039380;27;100108;-89
2021/08/02 04:05:19;;;;;;;7.45;3.67;;;;;;;16.71;70.27;99587.66;5022802;27;101214;-89
2021/08/02 04:07:46;;;;;;;9.68;4.00;;;;;;;16.77;70.60;99588.22;5040078;27;96536;-89
2021/08/02 04:10:12;;;;;;;6.93;3.75;;;;;;;16.78;70.16;99585.44;5023349;27;96820;-88
2021/08/02 04:12:38;;;;;;;8.00;4.63;;;;;;;16.84;70.23;99595.63;5022151;27;101761;-89
2021/08/02 04:15:08;;;;;;;9.32;3.70;;;;;;;16.86;70.27;99604.31;5022527;27;100928;-89
2021/08/02 04:17:34;;;;;;;5.97;3.53;;;;;;;16.88;70.09;99606.88;5072893;27;96900;-89
2021/08/02 04:19:59;;;;;;;10.05;4.15;;;;;;;16.96;70.20;99615.13;5022111;27;97242;-88
2021/08/02 04:22:25;;;;;;;5.45;3.65;;;;;;;17.04;69.78;99612.75;5022148;27;100052;-88
2021/08/02 04:24:51;;;;;;;6.65;3.85;;;;;;;17.02;69.42;99612.03;5022140;27;101777;-89
2021/08/02 04:27:16;;;;;;;7.85;3.90;;;;;;;17.03;69.71;99621.66;5039641;27;96696;-90
2021/08/02 04:29:42;;;;;;;5.32;3.60;;;;;;;17.12;69.72;99620.16;5056000;27;96934;-89
2021/08/02 04:32:07;;;;;;;5.07;3.60;;;;;;;17.14;69.54;99616.44;5038911;27;99178;-89
2021/08/02 04:34:33;;;;;;;8.23;3.90;;;;;;;17.16;69.81;99626.91;5038019;27;101415;-89
2021/08/02 04:36:58;;;;;;;8.98;3.40;;;;;;;17.26;69.46;99635.91;5059958;27;97091;-89
2021/08/02 04:39:24;;;;;;;11.60;3.97;;;;;;;17.29;69.35;99641.00;5022179;27;96854;-89
2021/08/02 04:41:50;;;;;;;4.97;3.58;;;;;;;17.31;69.53;99632.94;5039890;27;101602;-89
2021/08/02 04:44:15;;;;;;;8.50;3.63;;;;;;;17.29;69.63;99642.81;5025551;27;100288;-89
2021/08/02 04:46:41;;;;;;;5.90;3.30;;;;;;;17.28;69.45;99646.41;5025471;27;96611;-89
2021/08/02 04:49:06;;;;;;;8.80;4.20;;;;;;;17.46;69.31;99653.03;5059909;27;96782;-89
2021/08/02 04:51:32;;;;;;;9.38;3.60;;;;;;;17.35;69.20;99648.50;5042079;27;99821;-90
2021/08/02 04:53:58;;;;;;;7.38;3.58;;;;;;;17.29;69.64;99646.28;5025506;27;100756;-88
2021/08/02 04:56:23;;;;;;;12.07;4.88;;;;;;;17.34;69.49;99657.44;5025266;27;96615;-92
2021/08/02 04:58:49;;;;;;;10.88;3.90;;;;;;;17.36;69.75;99652.00;5042959;27;96917;-89
2021/08/02 05:01:14;;;;;;;7.45;3.40;;;;;;;17.39;69.58;99657.94;5025542;27;100683;-88
2021/08/02 05:03:40;;;;;;;5.47;3.38;;;;;;;17.43;69.70;99663.88;5059153;27;98202;-89
2021/08/02 05:06:06;;;;;;;7.25;3.95;;;;;;;17.37;69.68;99659.84;5032369;27;96603;-88
2021/08/02 05:08:31;;;;;;;6.35;4.15;;;;;;;17.44;69.60;99662.91;5062598;27;96572;-88
2021/08/02 05:10:57;;;;;;;10.65;3.63;;;;;;;17.54;69.31;99671.91;5061886;27;100465;-89
2021/08/02 05:13:22;;;;;;;7.97;3.65;;;;;;;17.52;69.63;99673.81;5062044;27;100843;-91
2021/08/02 05:15:48;;;;;;;9.52;3.60;;;;;;;17.57;69.41;99676.09;5062522;27;96564;-89
2021/08/02 05:18:14;;;;;;;5.00;3.60;;;;;;;17.51;69.50;99674.78;5045776;27;96920;-88
2021/08/02 05:20:41;;;;;;;6.35;3.25;;;;;;;17.62;69.38;99673.97;5061322;27;101168;-88
2021/08/02 05:23:07;;;;;;;8.55;3.58;;;;;;;17.60;69.37;99670.59;5045102;27;101468;-88
2021/08/02 05:25:33;;;;;;;6.38;3.20;;;;;;;17.61;69.37;99667.81;5045123;27;97129;-88
2021/08/02 05:27:58;;;;;;;7.45;4.07;;;;;;;17.62;69.68;99677.47;5062582;27;96971;-88
2021/08/02 05:30:24;;;;;;;9.30;3.60;;;;;;;17.60;69.81;99670.59;5041175;27;101236;-92
2021/08/02 05:32:49;;;;;;;13.07;3.88;;;;;;;17.68;69.38;99675.34;5044291;27;100842;-88
2021/08/02 05:35:16;;;;;;;8.57;4.00;;;;;;;17.61;69.53;99673.13;5043688;27;97058;-88
2021/08/02 05:37:42;;;;;;;5.43;3.50;;;;;;;17.73;69.47;99678.50;5061650;27;97000;-88
2021/08/02 05:40:08;;;;;;;7.22;3.88;;;;;;;17.75;69.21;99673.94;5061485;27;98507;-89
2021/08/02 05:42:35;;;;;;;7.05;4.43;;;;;;;17.72;69.43;99672.34;5060903;27;101289;-90
2021/08/02 05:45:02;;;;;;;7.45;4.05;;;;;;;17.78;69.22;99676.41;5044665;27;96881;-89
2021/08/02 05:47:27;;;;;;;9.55;3.72;;;;;;;17.90;68.97;99677.28;5078087;27;97045;-90
2021/08/02 05:49:53;;;;;;;6.68;3.78;;;;;;;18.00;68.91;99680.94;5061011;27;101192;-89
2021/08/02 05:52:18;;;;;;;9.23;3.90;;;;;;;18.09;68.21;99682.91;5077809;27;100229;-85
2021/08/02 05:54:44;;;;;;;12.70;4.10;;;;;;;18.32;67.89;99691.78;5044052;27;97005;-88
2021/08/02 05:57:09;;;;;;;8.15;3.65;;;;;;;18.68;66.79;99690.78;5058101;27;96959;-89
2021/08/02 05:59:35;;;;;;;6.35;4.30;;;;;;;19.35;65.11;99692.59;5048574;27;98137;-87
2021/08/02 06:02:01;;;;;;;6.90;3.88;;;;;;;19.43;65.04;99694.63;5034754;27;101431;-87
2021/08/02 06:04:26;;;;;;;6.55;4.00;;;;;;;19.41;65.06;99689.44;5045200;27;96681;-89
2021/08/02 06:06:54;;;;;;;5.78;3.50;;;;;;;19.54;64.69;99689.28;5058462;27;96774;-87
2021/08/02 06:09:23;;;;;;;5.93;3.85;;;;;;;19.48;64.87;99692.44;5060426;27;101315;-84
2021/08/02 06:11:51;;;;;;;7.15;3.65;;;;;;;19.37;65.13;99690.69;5050058;27;101383;-83
2021/08/02 06:14:17;;;;;;;7.60;3.78;;;;;;;19.30;65.74;99689.47;5054255;27;97094;-83
2021/08/02 06:16:42;;;;;;;5.43;3.70;;;;;;;19.18;66.11;99688.63;5054672;27;96916;-86
2021/08/02 06:19:08;;;;;;;10.73;3.45;;;;;;;19.15;66.23;99690.69;5021492;27;101098;-83
2021/08/02 06:21:34;;;;;;;4.60;3.63;;;;;;;19.15;66.34;99696.03;5017666;27;101111;-83
2021/08/02 06:23:59;;;;;;;6.13;3.75;;;;;;;19.16;66.35;99700.34;5054082;27;97087;-84
2021/08/02 06:26:25;;;;;;;6.80;3.55;;;;;;;19.20;66.07;99694.69;5037221;27;97374;-83
2021/08/02 06:28:51;;;;;;;4.40;3.90;;;;;;;19.28;66.03;99701.19;5036106;27;101944;-84
2021/08/02 06:31:18;;;;;;;6.47;3.35;;;;;;;19.41;65.59;99708.06;5037365;27;98406;-84
2021/08/02 06:33:44;;;;;;;8.15;3.80;;;;;;;19.40;65.64;99709.06;5045357;27;97083;-83
2021/08/02 06:36:09;;;;;;;8.10;4.20;;;;;;;19.63;64.78;99703.66;5053557;27;98202;-83
2021/08/02 06:38:36;;;;;;;10.07;3.95;;;;;;;20.02;63.58;99712.91;5031044;27;101813;-83
2021/08/02 06:41:02;;;;;;;8.70;3.85;;;;;;;20.33;63.08;99711.19;5061782;27;101703;-84
2021/08/02 06:43:28;;;;;;;8.90;3.88;;;;;;;20.80;61.76;99713.47;5036125;27;96768;-83
2021/08/02 06:45:53;;;;;;;5.95;3.58;;;;;;;22.26;58.29;99705.88;5036387;27;96856;-84
2021/08/02 06:48:19;;;;;;;5.53;4.05;;;;;;;22.67;57.60;99707.34;5035638;27;98713;-84
2021/08/02 06:50:44;;;;;;;6.20;4.03;;;;;;;22.56;57.74;99711.00;5017937;27;101228;-83
2021/08/02 06:53:11;;;;;;;10.43;4.45;;;;;;;23.46;55.12;99703.38;5019267;27;96702;-83
2021/08/02 06:55:36;;;;;;;12.02;4.88;;;;;;;24.47;53.32;99712.09;5035632;27;97520;-82
2021/08/02 06:58:02;;;;;;;5.70;3.72;;;;;;;24.70;52.34;99708.91;5019271;27;101810;-82
2021/08/02 07:00:27;;;;;;;4.20;3.45;;;;;;;24.06;52.56;99703.69;5019364;27;100985;-84
2021/08/02 07:02:53;;;;;;;4.72;3.30;;;;;;;24.29;52.60;99705.88;5061919;27;97130;-82
2021/08/02 07:05:21;;;;;;;4.75;2.90;;;;;;;23.93;53.75;99706.75;5054052;27;97588;-83
2021/08/02 07:07:46;;;;;;;8.48;2.85;;;;;;;24.01;53.90;99714.03;5053528;27;101181;-83
2021/08/02 07:10:12;;;;;;;4.43;3.30;;;;;;;24.34;52.56;99708.94;5054230;27;101380;-82
2021/08/02 07:12:38;;;;;;;4.63;3.05;;;;;;;24.83;50.88;99709.31;5052969;27;97029;-82
2021/08/02 07:15:04;;;;;;;7.10;3.08;;;;;;;24.28;51.72;99726.50;5056380;27;97096;-83
2021/08/02 07:17:29;;;;;;;3.95;3.30;;;;;;;23.51;53.56;99722.53;5035516;27;101781;-83
2021/08/02 07:19:55;;;;;;;6.38;3.00;;;;;;;23.28;54.61;99728.28;5053077;27;101760;-83
2021/08/02 07:22:20;;;;;;;4.43;2.90;;;;;;;23.62;53.89;99725.00;5036731;27;97276;-84
2021/08/02 07:24:46;;;;;;;6.35;2.90;;;;;;;23.29;54.39;99734.47;5072111;27;97482;-82
2021/08/02 07:27:11;;;;;;;3.83;2.63;;;;;;;23.09;54.86;99728.34;5056011;27;98252;-83
2021/08/02 07:29:37;;;;;;;4.05;2.80;;;;;;;23.23;54.42;99727.03;5054818;27;99219;-83
2021/08/02 07:32:03;;;;;;;3.70;2.55;;;;;;;23.64;53.33;99724.84;5055608;27;96958;-80
2021/08/02 07:34:28;;;;;;;7.78;2.88;;;;;;;23.52;53.45;99724.19;5072055;27;97049;-81
2021/08/02 07:36:54;;;;;;;216.38;115.90;;;;;;;24.67;50.91;99728.00;5050773;27;98811;-80
2021/08/02 07:39:19;;;;;;;56.08;30.50;;;;;;;24.98;50.23;99737.25;5051043;27;98587;-83
2021/08/02 07:41:45;;;;;;;7.28;4.75;;;;;;;26.67;47.31;99726.47;5054121;27;97058;-81
2021/08/02 07:44:10;;;;;;;5.78;4.25;;;;;;;27.43;45.38;99733.16;5055158;27;97094;-81
2021/08/02 07:46:36;;;;;;;6.22;2.70;;;;;;;27.92;43.87;99735.63;5034493;27;101436;-84
2021/08/02 07:49:01;;;;;;;5.05;2.20;;;;;;;28.19;43.20;99731.59;5075849;27;98325;-83
2021/08/02 07:51:28;;;;;;;3.13;2.03;;;;;;;28.03;42.79;99729.81;5058991;27;96920;-82
2021/08/02 07:53:55;;;;;;;5.15;2.10;;;;;;;27.35;44.18;99739.44;5046530;27;97189;-86
2021/08/02 07:56:21;;;;;;;3.25;2.25;;;;;;;28.11;42.70;99737.03;5030954;27;101698;-87
2021/08/02 07:58:46;;;;;;;2.33;2.05;;;;;;;27.52;43.17;99746.44;5055355;27;101350;-88
2021/08/02 08:01:12;;;;;;;6.57;2.30;;;;;;;27.28;43.79;99752.75;5039884;27;96964;-83
2021/08/02 08:03:37;;;;;;;3.13;2.00;;;;;;;28.04;42.72;99749.53;5037974;27;97050;-85
2021/08/02 08:06:03;;;;;;;2.67;1.73;;;;;;;28.39;42.08;99750.78;5037769;27;102798;-87
2021/08/02 08:08:28;;;;;;;5.03;2.00;;;;;;;28.29;42.32;99753.75;5073861;27;101094;-89
2021/08/02 08:10:54;;;;;;;2.97;2.25;;;;;;;27.64;43.40;99754.97;5056272;27;96705;-79
2021/08/02 08:13:19;;;;;;;4.65;2.22;;;;;;;27.13;44.61;99753.63;5029533;27;97242;-81
2021/08/02 08:15:46;;;;;;;2.60;1.90;;;;;;;26.97;45.13;99758.06;5039331;27;100968;-81
2021/08/02 08:18:11;;;;;;;4.25;2.10;;;;;;;26.99;45.26;99749.78;5050682;27;101015;-84
2021/08/02 08:20:37;;;;;;;7.57;1.90;;;;;;;27.98;43.06;99753.78;5055826;27;96926;-84
2021/08/02 08:23:03;;;;;;;3.35;1.60;;;;;;;28.70;41.59;99748.03;5036569;27;97144;-85
2021/08/02 08:25:28;;;;;;;5.38;1.80;;;;;;;28.25;42.11;99744.34;5039760;27;101544;-85
2021/08/02 08:27:54;;;;;;;2.72;2.10;;;;;;;28.13;42.28;99748.47;5052644;27;101344;-86
2021/08/02 08:30:20;;;;;;;3.72;1.50;;;;;;;28.05;42.30;99749.38;5053780;27;97031;-86
2021/08/02 08:32:46;;;;;;;3.72;1.77;;;;;;;28.75;41.36;99751.03;5040106;27;96935;-86
2021/08/02 08:35:12;;;;;;;6.93;1.77;;;;;;;29.41;40.24;99742.19;5066308;27;98509;-87
2021/08/02 08:37:38;;;;;;;4.05;1.90;;;;;;;29.16;40.57;99755.19;5059505;27;98482;-87
2021/08/02 08:40:05;;;;;;;2.58;1.73;;;;;;;30.68;37.88;99748.78;5056805;27;97318;-87
2021/08/02 08:42:32;;;;;;;3.92;1.90;;;;;;;29.51;39.10;99749.00;5060246;27;96992;-86
2021/08/02 08:44:57;;;;;;;3.05;1.90;;;;;;;28.32;41.33;99752.53;5050865;27;100474;-86
2021/08/02 08:47:23;;;;;;;3.28;2.20;;;;;;;27.35;42.91;99765.56;5036361;27;101525;-87
2021/08/02 08:49:49;;;;;;;1.92;1.55;;;;;;;27.19;43.45;99769.97;5052975;27;97057;-85
2021/08/02 08:52:15;;;;;;;3.90;1.70;;;;;;;27.24;43.32;99756.81;5037650;27;97044;-85
2021/08/02 08:54:42;;;;;;;2.33;1.90;;;;;;;26.75;44.19;99766.84;5031708;27;101423;-86
2021/08/02 08:57:12;;;;;;;5.25;1.63;;;;;;;26.16;44.33;99770.50;5054326;27;101623;-85
2021/08/02 08:59:51;;;;;;;4.93;1.98;;;;;;;25.67;45.54;99775.72;5037275;27;96661;-87
2021/08/02 09:02:25;;;;;;;2.40;1.60;;;;;;;25.35;46.26;99779.09;5049688;27;97015;-85
2021/08/02 09:05:02;;;;;;;4.15;1.90;;;;;;;25.33;46.46;99777.59;5053326;27;98419;-85
2021/08/02 09:07:46;;;;;;;13.68;3.45;;;;;;;24.97;47.37;99789.28;5043106;27;97474;-85
2021/08/02 09:10:17;;;;;;;5.75;3.20;;;;;;;24.95;47.29;99787.75;5058446;27;96821;-84
2021/08/02 09:12:56;;;;;;;;;;;;;;;24.65;48.18;99784.50;5037124;27;96865;-85
2021/08/02 09:15:38;;;;;;;6.15;2.20;;;;;;;24.77;48.39;99782.41;5047865;27;100869;-84
2021/08/02 09:18:07;;;;;;;2.22;1.95;;;;;;;24.84;47.93;99786.16;5036592;27;101387;-84
2021/08/02 09:20:33;;;;;;;5.75;2.25;;;;;;;24.80;48.54;99788.31;5054424;27;96973;-81
2021/08/02 09:23:16;;;;;;;7.93;2.30;;;;;;;24.89;48.30;99789.22;5042632;27;97375;-83
2021/08/02 09:25:50;;;;;;;3.05;2.38;;;;;;;25.14;47.83;99802.84;5034946;27;100050;-85
2021/08/02 09:28:18;;;;;;;4.15;2.15;;;;;;;25.47;47.64;99787.72;5024921;27;100147;-86
2021/08/02 09:31:04;;;;;;;4.25;2.67;;;;;;;26.02;45.34;99781.06;5058932;27;96832;-85
2021/08/02 09:33:43;;;;;;;4.72;2.33;;;;;;;26.45;44.74;99784.47;5042747;27;96794;-86
2021/08/02 09:36:09;;;;;;;4.87;2.30;;;;;;;26.21;44.98;99778.06;5039961;27;101486;-86
2021/08/02 09:38:35;;;;;;;4.80;2.13;;;;;;;26.08;45.39;99783.09;5049749;27;100396;-85
2021/08/02 09:41:00;;;;;;;2.08;1.88;;;;;;;25.77;45.84;99785.47;5071872;27;97821;-85
2021/08/02 09:43:31;;;;;;;2.63;2.22;;;;;;;25.68;46.01;99784.63;5038969;27;96927;-86
2021/08/02 09:45:59;;;;;;;3.92;1.77;;;;;;;25.79;46.00;99778.94;5043495;27;100150;-85
2021/08/02 09:48:38;;;;;;;4.18;2.17;;;;;;;26.01;45.84;99777.53;5041933;27;101159;-86
2021/08/02 09:51:11;;;;;;;1.98;1.60;;;;;;;26.01;45.12;99774.00;5057183;27;97020;-85
2021/08/02 09:53:45;;;;;;;4.28;1.70;;;;;;;26.11;45.07;99780.91;5037102;27;97631;-85
2021/08/02 09:56:22;;;;;;;2.00;1.70;;;;;;;26.17;44.93;99785.63;5064487;27;97473;-85
2021/08/02 09:58:48;;;;;;;3.90;1.55;;;;;;;25.96;44.51;99787.94;5029102;27;101318;-86
2021/08/02 10:01:19;;;;;;;4.35;1.70;;;;;;;25.85;45.00;99786.38;5030067;27;96979;-86
2021/08/02 10:03:45;;;;;;;2.30;1.85;;;;;;;26.08;44.80;99773.16;5024323;27;96873;-86
2021/08/02 10:06:12;;;;;;;2.17;1.73;;;;;;;26.38;44.64;99787.84;5074101;27;98384;-86
2021/08/02 10:08:38;;;;;;;2.55;2.28;;;;;;;26.76;44.09;99784.66;5069795;27;98337;-85
2021/08/02 10:11:05;;;;;;;3.83;1.83;;;;;;;26.76;44.29;99777.44;5045514;27;96782;-86
2021/08/02 10:13:37;;;;;;;3.47;1.70;;;;;;;27.47;42.69;99762.28;5069738;27;96932;-86
2021/08/02 10:16:07;;;;;;;2.85;1.85;;;;;;;28.01;42.42;99766.91;5025346;27;101250;-86
2021/08/02 10:18:33;;;;;;;3.17;1.70;;;;;;;28.07;42.66;99774.31;5056342;27;98471;-86
2021/08/02 10:21:04;;;;;;;2.25;1.90;;;;;;;28.04;42.20;99771.94;5055068;27;96660;-86
2021/08/02 10:23:29;;;;;;;6.03;1.90;;;;;;;27.38;43.35;99776.81;5060328;27;96913;-86
2021/08/02 10:25:55;;;;;;;3.92;2.10;;;;;;;26.95;43.89;99770.84;5037350;27;101822;-86
2021/08/02 10:28:20;;;;;;;2.28;1.80;;;;;;;27.16;43.89;99774.84;5055800;27;99796;-86
2021/08/02 10:30:48;;;;;;;2.28;1.88;;;;;;;27.40;43.07;99771.25;5025199;27;96742;-86
2021/08/02 10:33:14;;;;;;;2.35;1.80;;;;;;;27.24;43.75;99767.59;5050645;27;97094;-86
2021/08/02 10:35:46;;;;;;;2.28;1.95;;;;;;;27.30;44.06;99761.50;5041927;27;101343;-85
2021/08/02 10:38:17;;;;;;;2.58;1.92;;;;;;;27.14;43.58;99772.31;5069581;27;101479;-86
2021/08/02 10:40:54;;;;;;;3.65;2.35;;;;;;;27.03;43.40;99767.28;5022018;27;96692;-86
2021/08/02 10:43:32;;;;;;;6.00;2.25;;;;;;;27.03;43.80;99770.81;5021936;27;97158;-86
2021/08/02 10:45:59;;;;;;;2.45;2.15;;;;;;;27.06;43.95;99769.66;5037469;27;101267;-86
2021/08/02 10:48:30;;;;;;;3.85;2.00;;;;;;;27.15;44.48;99760.56;5035319;27;101464;-86
2021/08/02 10:50:56;;;;;;;7.50;2.08;;;;;;;27.15;44.13;99759.69;5031824;27;96824;-86
2021/08/02 10:53:22;;;;;;;3.33;1.90;;;;;;;27.07;44.63;99771.31;5032550;27;97034;-86
2021/08/02 10:55:52;;;;;;;3.25;1.88;;;;;;;26.99;44.55;99761.38;5043467;27;98555;-85
2021/08/02 10:58:40;;;;;;;2.30;1.85;;;;;;;26.82;43.54;99762.44;5019645;27;100848;-86
2021/08/02 11:01:13;;;;;;;3.47;1.60;;;;;;;26.48;43.69;99758.06;5040708;27;96767;-86
2021/08/02 11:03:40;;;;;;;3.30;1.83;;;;;;;26.49;44.18;99754.34;5041481;27;96919;-86
2021/08/02 11:06:19;;;;;;;2.35;1.90;;;;;;;26.38;44.38;99768.16;5025548;27;101393;-86
2021/08/02 11:08:49;;;;;;;2.65;1.90;;;;;;;26.51;44.03;99762.31;5038665;27;101400;-88
2021/08/02 11:11:29;;;;;;;4.23;2.03;;;;;;;26.67;44.17;99769.53;5039306;27;96905;-86
2021/08/02 11:14:12;;;;;;;2.20;1.70;;;;;;;26.71;44.76;99762.81;5041452;27;97052;-85
2021/08/02 11:16:40;;;;;;;3.55;1.70;;;;;;;26.81;44.17;99753.53;5041010;27;101600;-86
2021/08/02 11:19:22;;;;;;;1.98;1.77;;;;;;;26.76;43.97;99757.72;5040780;27;101280;-86
2021/08/02 11:22:02;;;;;;;2.00;1.70;;;;;;;26.56;44.11;99751.91;5037200;27;96762;-86
2021/08/02 11:24:29;;;;;;;;;;;;;;;26.40;44.13;99755.38;5038911;27;96794;-86
2021/08/02 11:26:56;;;;;;;4.22;2.55;;;;;;;26.42;44.44;99748.00;5040501;27;101593;-86
2021/08/02 11:29:24;;;;;;;4.45;2.40;;;;;;;26.30;44.48;99752.84;5026290;27;101537;-87
2021/08/02 11:31:53;;;;;;;2.33;1.85;;;;;;;26.41;43.76;99754.34;5020060;27;96817;-85
2021/08/02 11:34:20;;;;;;;3.58;2.15;;;;;;;26.48;43.79;99755.38;5054764;27;97288;-87